sensor_id;sensor_type;location;lat;lon;timestamp;P1;P2;P0
55076;PMS7003;40971;44.702;11.030;2023-05-31T00:01:38;27.00;23.00;17.67
55076;PMS7003;40971;44.702;11.030;2023-05-31T00:11:40;23.00;22.00;16.50
55076;PMS7003;40971;44.702;11.030;2023-05-31T00:21:42;22.50;22.50;16.00
55076;PMS7003;40971;44.702;11.030;2023-05-31T00:31:46;23.00;22.00;17.00
55076;PMS7003;40971;44.702;11.030;2023-05-31T00:41:49;27.67;26.00;18.00
55076;PMS7003;40971;44.702;11.030;2023-05-31T00:51:50;22.50;22.50;18.00
55076;PMS7003;40971;44.702;11.030;2023-05-31T01:01:54;22.00;22.00;17.00
55076;PMS7003;40971;44.702;11.030;2023-05-31T01:32:42;24.50;24.50;19.00
55076;PMS7003;40971;44.702;11.030;2023-05-31T01:42:46;23.00;22.00;17.50
55076;PMS7003;40971;44.702;11.030;2023-05-31T01:52:51;21.00;21.00;15.00
55076;PMS7003;40971;44.702;11.030;2023-05-31T02:02:53;23.00;20.20;14.20
55076;PMS7003;40971;44.702;11.030;2023-05-31T02:12:55;18.80;18.80;14.40
55076;PMS7003;40971;44.702;11.030;2023-05-31T02:22:58;15.00;15.00;13.00
55076;PMS7003;40971;44.702;11.030;2023-05-31T02:33:01;20.63;16.50;13.50
55076;PMS7003;40971;44.702;11.030;2023-05-31T02:43:03;12.80;12.80;11.00
55076;PMS7003;40971;44.702;11.030;2023-05-31T02:53:04;18.33;17.33;12.33
55076;PMS7003;40971;44.702;11.030;2023-05-31T03:03:06;16.33;16.33;12.33
55076;PMS7003;40971;44.702;11.030;2023-05-31T03:13:08;19.67;19.00;13.00
55076;PMS7003;40971;44.702;11.030;2023-05-31T03:23:09;14.67;14.67;12.00
55076;PMS7003;40971;44.702;11.030;2023-05-31T03:33:11;14.33;14.00;11.67
55076;PMS7003;40971;44.702;11.030;2023-05-31T03:43:13;18.80;17.80;13.60
55076;PMS7003;40971;44.702;11.030;2023-05-31T03:53:14;17.33;17.33;11.67
55076;PMS7003;40971;44.702;11.030;2023-05-31T04:03:16;12.00;12.00;10.00
55076;PMS7003;40971;44.702;11.030;2023-05-31T04:13:19;21.67;19.67;12.00
55076;PMS7003;40971;44.702;11.030;2023-05-31T04:23:21;13.67;13.67;11.33
55076;PMS7003;40971;44.702;11.030;2023-05-31T04:33:23;17.00;16.33;12.33
55076;PMS7003;40971;44.702;11.030;2023-05-31T04:43:24;19.67;19.67;14.00
55076;PMS7003;40971;44.702;11.030;2023-05-31T04:53:27;12.33;12.33;9.67
55076;PMS7003;40971;44.702;11.030;2023-05-31T05:03:28;16.67;14.00;9.67
55076;PMS7003;40971;44.702;11.030;2023-05-31T05:13:30;13.67;13.67;10.00
55076;PMS7003;40971;44.702;11.030;2023-05-31T05:23:33;11.43;11.43;9.00
55076;PMS7003;40971;44.702;11.030;2023-05-31T05:33:36;15.00;14.33;10.00
55076;PMS7003;40971;44.702;11.030;2023-05-31T05:43:39;13.57;12.71;9.71
55076;PMS7003;40971;44.702;11.030;2023-05-31T05:53:42;15.71;15.71;10.14
55076;PMS7003;40971;44.702;11.030;2023-05-31T06:03:47;20.00;19.00;11.33
55076;PMS7003;40971;44.702;11.030;2023-05-31T06:13:52;14.33;14.33;11.00
55076;PMS7003;40971;44.702;11.030;2023-05-31T06:23:57;16.33;15.33;14.00
55076;PMS7003;40971;44.702;11.030;2023-05-31T06:33:59;20.00;20.00;14.67
55076;PMS7003;40971;44.702;11.030;2023-05-31T06:44:01;20.67;15.33;13.00
55076;PMS7003;40971;44.702;11.030;2023-05-31T06:54:03;18.20;16.60;12.20
55076;PMS7003;40971;44.702;11.030;2023-05-31T07:04:04;18.00;17.67;12.00
55076;PMS7003;40971;44.702;11.030;2023-05-31T07:14:05;17.50;17.50;13.00
55076;PMS7003;40971;44.702;11.030;2023-05-31T07:24:09;16.25;16.13;11.75
55076;PMS7003;40971;44.702;11.030;2023-05-31T07:34:10;15.00;15.00;12.67
55076;PMS7003;40971;44.702;11.030;2023-05-31T07:44:11;15.00;15.00;12.00
55076;PMS7003;40971;44.702;11.030;2023-05-31T07:54:13;20.00;17.00;13.33
55076;PMS7003;40971;44.702;11.030;2023-05-31T08:04:17;16.50;15.25;13.00
55076;PMS7003;40971;44.702;11.030;2023-05-31T08:14:21;16.00;16.00;12.75
55076;PMS7003;40971;44.702;11.030;2023-05-31T08:24:22;17.50;17.00;14.50
55076;PMS7003;40971;44.702;11.030;2023-05-31T08:34:23;22.33;22.00;17.00
55076;PMS7003;40971;44.702;11.030;2023-05-31T08:44:24;18.00;17.33;14.33
55076;PMS7003;40971;44.702;11.030;2023-05-31T08:54:27;19.50;17.00;14.00
55076;PMS7003;40971;44.702;11.030;2023-05-31T09:04:30;19.33;17.33;12.33
55076;PMS7003;40971;44.702;11.030;2023-05-31T09:14:34;19.00;18.50;13.25
55076;PMS7003;40971;44.702;11.030;2023-05-31T09:24:38;17.75;17.38;14.25
55076;PMS7003;40971;44.702;11.030;2023-05-31T09:34:50;19.67;19.67;15.33
55076;PMS7003;40971;44.702;11.030;2023-05-31T09:44:54;19.33;19.00;15.00
55076;PMS7003;40971;44.702;11.030;2023-05-31T09:55:04;20.88;18.75;14.88
55076;PMS7003;40971;44.702;11.030;2023-05-31T10:05:06;18.00;18.00;14.00
55076;PMS7003;40971;44.702;11.030;2023-05-31T10:15:09;18.33;17.67;14.67
55076;PMS7003;40971;44.702;11.030;2023-05-31T10:25:22;19.67;19.67;15.67
55076;PMS7003;40971;44.702;11.030;2023-05-31T10:35:28;15.00;15.00;13.00
55076;PMS7003;40971;44.702;11.030;2023-05-31T10:45:34;16.00;16.00;13.00
55076;PMS7003;40971;44.702;11.030;2023-05-31T10:55:40;18.00;16.00;13.00
55076;PMS7003;40971;44.702;11.030;2023-05-31T11:05:53;12.50;12.50;11.00
55076;PMS7003;40971;44.702;11.030;2023-05-31T11:15:56;14.00;13.00;11.00
55076;PMS7003;40971;44.702;11.030;2023-05-31T11:36:15;13.67;13.00;12.00
55076;PMS7003;40971;44.702;11.030;2023-05-31T11:46:16;14.00;14.00;11.00
55076;PMS7003;40971;44.702;11.030;2023-05-31T11:56:28;15.00;14.33;10.67
55076;PMS7003;40971;44.702;11.030;2023-05-31T12:06:31;13.67;13.33;11.00
55076;PMS7003;40971;44.702;11.030;2023-05-31T12:16:34;12.00;12.00;10.00
55076;PMS7003;40971;44.702;11.030;2023-05-31T12:26:36;13.67;12.67;10.00
55076;PMS7003;40971;44.702;11.030;2023-05-31T12:36:38;14.00;14.00;11.00
55076;PMS7003;40971;44.702;11.030;2023-05-31T12:46:50;15.00;14.50;11.50
55076;PMS7003;40971;44.702;11.030;2023-05-31T12:56:59;13.33;13.00;10.67
55076;PMS7003;40971;44.702;11.030;2023-05-31T13:07:05;11.33;11.33;9.00
55076;PMS7003;40971;44.702;11.030;2023-05-31T13:17:06;14.20;14.20;12.00
55076;PMS7003;40971;44.702;11.030;2023-05-31T13:27:08;16.00;16.00;13.00
55076;PMS7003;40971;44.702;11.030;2023-05-31T13:37:10;13.33;12.33;10.00
55076;PMS7003;40971;44.702;11.030;2023-05-31T13:47:12;14.00;13.00;10.00
55076;PMS7003;40971;44.702;11.030;2023-05-31T13:57:13;16.00;15.00;13.00
55076;PMS7003;40971;44.702;11.030;2023-05-31T14:07:15;13.00;13.00;11.00
55076;PMS7003;40971;44.702;11.030;2023-05-31T14:17:19;15.00;13.50;10.50
55076;PMS7003;40971;44.702;11.030;2023-05-31T14:27:19;12.50;12.50;10.00
55076;PMS7003;40971;44.702;11.030;2023-05-31T14:37:21;12.00;12.00;10.00
55076;PMS7003;40971;44.702;11.030;2023-05-31T14:47:22;13.33;13.33;10.00
55076;PMS7003;40971;44.702;11.030;2023-05-31T14:57:24;15.00;14.00;11.00
55076;PMS7003;40971;44.702;11.030;2023-05-31T15:07:25;14.00;14.00;9.00
55076;PMS7003;40971;44.702;11.030;2023-05-31T15:17:26;12.00;10.67;9.00
55076;PMS7003;40971;44.702;11.030;2023-05-31T15:27:28;12.00;12.00;10.00
55076;PMS7003;40971;44.702;11.030;2023-05-31T15:37:29;15.00;14.33;10.67
55076;PMS7003;40971;44.702;11.030;2023-05-31T15:47:30;11.33;11.33;9.00
55076;PMS7003;40971;44.702;11.030;2023-05-31T15:57:32;15.00;14.33;11.00
55076;PMS7003;40971;44.702;11.030;2023-05-31T16:07:33;14.67;13.67;10.00
55076;PMS7003;40971;44.702;11.030;2023-05-31T16:17:36;14.60;14.20;10.80
55076;PMS7003;40971;44.702;11.030;2023-05-31T16:27:38;14.00;14.00;11.00
55076;PMS7003;40971;44.702;11.030;2023-05-31T16:37:41;12.71;12.71;10.86
55076;PMS7003;40971;44.702;11.030;2023-05-31T16:47:42;15.00;14.67;12.00
55076;PMS7003;40971;44.702;11.030;2023-05-31T16:57:44;16.33;16.33;12.33
55076;PMS7003;40971;44.702;11.030;2023-05-31T17:07:45;14.67;14.67;12.00
55076;PMS7003;40971;44.702;11.030;2023-05-31T17:17:48;10.86;10.86;9.43
55076;PMS7003;40971;44.702;11.030;2023-05-31T17:27:50;13.20;13.20;11.00
55076;PMS7003;40971;44.702;11.030;2023-05-31T17:37:53;15.00;15.00;12.33
55076;PMS7003;40971;44.702;11.030;2023-05-31T17:47:54;16.67;16.67;12.67
55076;PMS7003;40971;44.702;11.030;2023-05-31T17:57:55;16.00;14.67;13.00
55076;PMS7003;40971;44.702;11.030;2023-05-31T18:07:57;14.00;14.00;13.00
55076;PMS7003;40971;44.702;11.030;2023-05-31T18:17:58;13.67;12.67;10.67
55076;PMS7003;40971;44.702;11.030;2023-05-31T18:28:01;13.40;13.40;11.20
55076;PMS7003;40971;44.702;11.030;2023-05-31T18:38:05;11.86;11.86;9.29
55076;PMS7003;40971;44.702;11.030;2023-05-31T18:48:06;13.00;13.00;11.00
55076;PMS7003;40971;44.702;11.030;2023-05-31T18:58:07;16.33;16.33;13.00
55076;PMS7003;40971;44.702;11.030;2023-05-31T19:08:10;22.67;22.67;17.67
55076;PMS7003;40971;44.702;11.030;2023-05-31T19:18:13;24.33;21.67;17.00
55076;PMS7003;40971;44.702;11.030;2023-05-31T19:28:17;23.11;23.11;15.89
55076;PMS7003;40971;44.702;11.030;2023-05-31T19:38:19;21.00;21.00;15.00
55076;PMS7003;40971;44.702;11.030;2023-05-31T19:48:20;17.50;17.50;11.50
55076;PMS7003;40971;44.702;11.030;2023-05-31T19:58:22;20.60;20.00;15.40
55076;PMS7003;40971;44.702;11.030;2023-05-31T20:08:25;20.20;19.60;14.40
55076;PMS7003;40971;44.702;11.030;2023-05-31T20:18:27;20.00;20.00;15.00
55076;PMS7003;40971;44.702;11.030;2023-05-31T20:28:28;19.00;19.00;14.00
55076;PMS7003;40971;44.702;11.030;2023-05-31T20:38:30;22.60;19.60;14.40
55076;PMS7003;40971;44.702;11.030;2023-05-31T20:48:31;17.80;17.80;14.00
55076;PMS7003;40971;44.702;11.030;2023-05-31T20:58:35;20.00;16.71;11.57
55076;PMS7003;40971;44.702;11.030;2023-05-31T21:08:36;18.00;14.67;13.67
55076;PMS7003;40971;44.702;11.030;2023-05-31T21:18:38;19.33;19.33;14.00
55076;PMS7003;40971;44.702;11.030;2023-05-31T21:28:41;18.00;18.00;14.50
55076;PMS7003;40971;44.702;11.030;2023-05-31T21:38:44;19.00;18.14;13.14
55076;PMS7003;40971;44.702;11.030;2023-05-31T21:48:47;19.00;17.20;12.80
55076;PMS7003;40971;44.702;11.030;2023-05-31T21:58:49;20.67;18.33;13.67
55076;PMS7003;40971;44.702;11.030;2023-05-31T22:08:51;21.40;20.00;13.40
55076;PMS7003;40971;44.702;11.030;2023-05-31T22:18:53;19.00;17.00;13.80
55076;PMS7003;40971;44.702;11.030;2023-05-31T22:28:55;20.50;20.50;15.00
55076;PMS7003;40971;44.702;11.030;2023-05-31T22:38:57;23.50;21.00;16.00
55076;PMS7003;40971;44.702;11.030;2023-05-31T22:48:59;20.60;20.40;16.80
55076;PMS7003;40971;44.702;11.030;2023-05-31T22:59:01;21.50;20.50;15.00
55076;PMS7003;40971;44.702;11.030;2023-05-31T23:09:02;20.33;20.00;16.00
55076;PMS7003;40971;44.702;11.030;2023-05-31T23:19:06;23.00;21.40;15.00
55076;PMS7003;40971;44.702;11.030;2023-05-31T23:29:08;26.33;23.33;16.33
55076;PMS7003;40971;44.702;11.030;2023-05-31T23:39:10;25.20;22.00;15.80
55076;PMS7003;40971;44.702;11.030;2023-05-31T23:49:14;23.00;21.00;16.00
55076;PMS7003;40971;44.702;11.030;2023-05-31T23:59:16;24.00;21.20;16.20
